Time;durP1;ratioP1;P1;durP2;ratioP2;P2;SDS_P1;SDS_P2;PMS_P1;PMS_P2;Temp;Humidity;BMP_temperature;BMP_pressure;BME280_temperature;BME280_humidity;BME280_pressure;Samples;Min_cycle;Max_cycle;Signal;HPM_P1;HPM_P2
2022/07/30 00:01:59;;;;;;;9.02;3.47;;;20.10;78.40;;;;;;5057100;28;20049;-77
2022/07/30 00:04:25;;;;;;;7.75;3.70;;;20.00;78.70;;;;;;5072378;28;20028;-77
2022/07/30 00:06:51;;;;;;;6.72;3.70;;;20.00;79.00;;;;;;5056947;28;20116;-78
2022/07/30 00:09:17;;;;;;;8.43;3.83;;;20.00;79.40;;;;;;5057131;28;20112;-77
2022/07/30 00:11:42;;;;;;;9.93;4.18;;;19.90;79.70;;;;;;5055200;28;20025;-77
2022/07/30 00:14:09;;;;;;;9.60;3.85;;;19.90;80.00;;;;;;5056704;28;20025;-77
2022/07/30 00:16:35;;;;;;;8.45;4.22;;;19.90;80.30;;;;;;5056331;28;20095;-77
2022/07/30 00:19:01;;;;;;;9.32;3.70;;;19.90;80.60;;;;;;5038496;28;20428;-77
2022/07/30 00:21:26;;;;;;;6.95;3.28;;;19.80;80.80;;;;;;5071831;28;20445;-78
2022/07/30 00:23:52;;;;;;;9.00;3.33;;;19.80;81.00;;;;;;5056215;28;20113;-77
2022/07/30 00:26:21;;;;;;;9.45;4.03;;;19.70;81.20;;;;;;5071480;28;20025;-77
2022/07/30 00:28:46;;;;;;;6.68;3.40;;;19.70;81.40;;;;;;5056276;28;20029;-78
2022/07/30 00:31:12;;;;;;;11.63;4.20;;;19.70;81.70;;;;;;5056528;28;20031;-78
2022/07/30 00:33:37;;;;;;;9.13;3.90;;;19.70;82.00;;;;;;5056758;28;20029;-77
2022/07/30 00:36:03;;;;;;;7.35;3.70;;;19.60;82.30;;;;;;5072071;28;20063;-78
2022/07/30 00:38:29;;;;;;;5.93;3.55;;;19.60;82.50;;;;;;5056069;28;20067;-77
2022/07/30 00:40:54;;;;;;;7.15;3.53;;;19.60;82.70;;;;;;5071949;28;20036;-77
2022/07/30 00:43:20;;;;;;;10.75;4.55;;;19.50;82.90;;;;;;5056258;28;20037;-78
2022/07/30 00:45:46;;;;;;;9.20;4.22;;;19.50;83.20;;;;;;5071530;28;20110;-78
2022/07/30 00:48:13;;;;;;;11.48;4.00;;;19.50;83.40;;;;;;5071720;28;20366;-77
2022/07/30 00:50:39;;;;;;;11.77;4.25;;;19.50;83.60;;;;;;5056079;28;20025;-78
2022/07/30 00:53:05;;;;;;;11.63;3.75;;;19.40;83.80;;;;;;5038228;28;20044;-77
2022/07/30 00:55:31;;;;;;;11.20;4.03;;;19.40;84.00;;;;;;5071330;28;20074;-74
2022/07/30 00:57:57;;;;;;;7.75;4.50;;;19.40;84.20;;;;;;5071098;28;20041;-75
2022/07/30 01:00:24;;;;;;;9.80;4.15;;;19.30;84.40;;;;;;5054586;28;20017;-75
2022/07/30 01:02:49;;;;;;;11.43;4.38;;;19.30;84.60;;;;;;5053610;28;20114;-75
2022/07/30 01:05:15;;;;;;;11.10;4.07;;;19.30;84.70;;;;;;5055353;28;20040;-74
2022/07/30 01:07:41;;;;;;;10.82;4.50;;;19.30;85.00;;;;;;5070965;28;20033;-75
2022/07/30 01:10:09;;;;;;;10.95;4.22;;;19.30;85.20;;;;;;5037665;28;20071;-74
2022/07/30 01:12:36;;;;;;;8.95;3.85;;;19.30;85.30;;;;;;5055634;28;20083;-75
2022/07/30 01:15:05;;;;;;;9.85;4.03;;;19.20;85.40;;;;;;5071041;28;20060;-74
2022/07/30 01:17:30;;;;;;;7.75;3.88;;;19.20;85.60;;;;;;5056122;28;20029;-75
2022/07/30 01:20:02;;;;;;;8.27;4.43;;;19.20;85.80;;;;;;5055405;28;20408;-74
2022/07/30 01:22:46;;;;;;;8.23;3.90;;;19.10;85.90;;;;;;5037398;28;20119;-74
2022/07/30 01:25:30;;;;;;;9.55;3.72;;;19.10;86.20;;;;;;5037490;28;20465;-74
2022/07/30 01:28:00;;;;;;;9.00;3.90;;;19.10;86.20;;;;;;5055428;28;20031;-74
2022/07/30 01:30:30;;;;;;;8.23;4.03;;;19.00;86.30;;;;;;5055041;28;20074;-74
2022/07/30 01:32:56;;;;;;;7.63;3.90;;;19.00;86.50;;;;;;5055074;28;20057;-74
2022/07/30 01:35:24;;;;;;;8.27;4.30;;;19.00;86.70;;;;;;5037119;28;20029;-74
2022/07/30 01:37:53;;;;;;;7.63;3.78;;;19.00;86.90;;;;;;5055138;28;20146;-74
2022/07/30 01:40:19;;;;;;;6.05;3.67;;;19.00;87.20;;;;;;5054834;28;20036;-74
2022/07/30 01:42:52;;;;;;;8.60;4.43;;;18.90;87.30;;;;;;5054850;28;20400;-74
2022/07/30 01:45:17;;;;;;;9.02;4.15;;;18.90;87.60;;;;;;5036736;28;20488;-74
2022/07/30 01:47:45;;;;;;;8.98;4.47;;;18.80;87.70;;;;;;5054871;28;20037;-74
2022/07/30 01:50:13;;;;;;;8.30;4.20;;;18.90;88.00;;;;;;5070089;28;20052;-74
2022/07/30 01:52:41;;;;;;;11.13;4.43;;;18.80;88.10;;;;;;5054747;28;20032;-74
2022/07/30 01:55:09;;;;;;;9.13;4.57;;;18.80;88.30;;;;;;5054954;28;20017;-74
2022/07/30 01:57:37;;;;;;;10.48;4.68;;;18.80;88.80;;;;;;5053341;28;20060;-74
2022/07/30 02:00:05;;;;;;;8.45;4.18;;;18.80;88.60;;;;;;5054728;28;20465;-74
2022/07/30 02:02:33;;;;;;;9.50;5.03;;;18.80;88.80;;;;;;5036749;28;20040;-74
2022/07/30 02:04:59;;;;;;;8.55;4.30;;;18.80;89.00;;;;;;5070101;28;20025;-77
2022/07/30 02:07:49;;;;;;;6.85;4.40;;;18.70;89.20;;;;;;5054935;28;20078;-77
2022/07/30 02:10:22;;;;;;;7.78;4.40;;;18.80;89.60;;;;;;5054521;28;20025;-77
2022/07/30 02:12:54;;;;;;;8.52;4.97;;;18.80;89.60;;;;;;5054346;28;20044;-77
2022/07/30 02:15:37;;;;;;;11.23;4.47;;;18.80;89.80;;;;;;5053349;28;20092;-77
2022/07/30 02:18:12;;;;;;;8.85;5.13;;;18.80;90.00;;;;;;5054521;28;20013;-77
2022/07/30 02:20:41;;;;;;;8.77;4.88;;;18.80;90.00;;;;;;5036605;28;20032;-76
2022/07/30 02:23:11;;;;;;;11.63;4.65;;;18.80;90.00;;;;;;5054209;28;20075;-76
2022/07/30 02:25:43;;;;;;;10.77;4.72;;;18.80;90.00;;;;;;5054274;28;20029;-77
2022/07/30 02:28:11;;;;;;;8.45;5.25;;;18.80;90.10;;;;;;5036296;28;20024;-77
2022/07/30 02:30:42;;;;;;;11.05;4.68;;;18.80;90.10;;;;;;5054291;28;20032;-77
2022/07/30 02:33:11;;;;;;;9.10;5.38;;;18.80;90.10;;;;;;5036294;28;20091;-77
2022/07/30 02:35:37;;;;;;;10.25;5.07;;;18.80;90.20;;;;;;5054246;28;20036;-77
2022/07/30 02:38:05;;;;;;;12.77;5.53;;;18.80;90.30;;;;;;5054005;28;20036;-77
2022/07/30 02:40:31;;;;;;;9.65;5.55;;;18.80;90.30;;;;;;5052812;28;20021;-77
2022/07/30 02:42:58;;;;;;;10.90;5.57;;;18.70;90.30;;;;;;5069336;28;20036;-77
2022/07/30 02:45:24;;;;;;;11.70;5.63;;;18.70;90.40;;;;;;5053675;28;20079;-77
2022/07/30 02:47:57;;;;;;;11.75;5.90;;;18.70;90.40;;;;;;5069403;28;20029;-77
2022/07/30 02:50:24;;;;;;;9.43;5.20;;;18.70;90.50;;;;;;5052918;28;20009;-76
2022/07/30 02:52:52;;;;;;;8.48;5.63;;;18.70;90.60;;;;;;5069081;28;20282;-77
2022/07/30 02:55:18;;;;;;;8.52;6.07;;;18.70;90.60;;;;;;5053720;28;20098;-77
2022/07/30 02:57:45;;;;;;;12.07;5.85;;;18.70;90.60;;;;;;5053798;28;20485;-78
2022/07/30 03:00:12;;;;;;;13.32;6.00;;;18.70;90.70;;;;;;5036186;28;20082;-78
2022/07/30 03:02:39;;;;;;;10.38;5.97;;;18.70;90.70;;;;;;5053352;28;20407;-77
2022/07/30 03:05:07;;;;;;;10.27;6.20;;;18.70;90.80;;;;;;5035721;28;20695;-78
2022/07/30 03:07:34;;;;;;;10.20;5.75;;;18.70;90.90;;;;;;5069410;28;20025;-77
2022/07/30 03:10:01;;;;;;;10.57;5.93;;;18.70;90.90;;;;;;5069258;28;20358;-77
2022/07/30 03:12:30;;;;;;;9.65;5.95;;;18.70;90.90;;;;;;5053530;28;20028;-77
2022/07/30 03:14:56;;;;;;;9.20;6.40;;;18.70;91.00;;;;;;5053491;28;20120;-77
2022/07/30 03:17:24;;;;;;;11.55;6.50;;;18.70;91.00;;;;;;5053373;28;20017;-77
2022/07/30 03:19:53;;;;;;;13.98;6.50;;;18.60;91.10;;;;;;5053525;28;20021;-77
2022/07/30 03:22:21;;;;;;;10.80;6.13;;;18.70;91.10;;;;;;5053566;28;20024;-77
2022/07/30 03:24:48;;;;;;;10.30;6.00;;;18.60;91.20;;;;;;5053529;28;20025;-78
2022/07/30 03:27:15;;;;;;;12.13;6.28;;;18.60;91.20;;;;;;5056974;28;20029;-77
2022/07/30 03:29:41;;;;;;;12.20;6.03;;;18.60;91.20;;;;;;5057770;28;20029;-77
2022/07/30 03:32:09;;;;;;;11.77;6.25;;;18.60;91.30;;;;;;5057730;28;20032;-77
2022/07/30 03:34:35;;;;;;;10.20;6.25;;;18.60;91.30;;;;;;5057548;28;20453;-77
2022/07/30 03:37:04;;;;;;;11.07;6.43;;;18.60;91.40;;;;;;5057299;28;20108;-77
2022/07/30 03:39:32;;;;;;;9.95;5.60;;;18.60;91.40;;;;;;5072967;28;20032;-77
2022/07/30 03:41:58;;;;;;;8.27;5.38;;;18.60;91.40;;;;;;5057434;28;20056;-77
2022/07/30 03:44:24;;;;;;;12.80;6.40;;;18.60;91.40;;;;;;5039630;28;20481;-77
2022/07/30 03:46:52;;;;;;;12.18;6.38;;;18.60;91.50;;;;;;5057531;28;20039;-78
2022/07/30 03:49:20;;;;;;;10.80;6.00;;;18.60;91.50;;;;;;5056010;28;20017;-77
2022/07/30 03:51:46;;;;;;;8.60;5.63;;;18.50;91.50;;;;;;5057582;28;20060;-77
2022/07/30 03:54:12;;;;;;;12.77;5.85;;;18.50;91.50;;;;;;5057116;28;20028;-77
2022/07/30 03:56:39;;;;;;;8.88;5.60;;;18.50;91.60;;;;;;5055486;28;20380;-77
2022/07/30 03:59:05;;;;;;;9.57;6.05;;;18.50;91.90;;;;;;5057064;28;20025;-77
2022/07/30 04:01:31;;;;;;;10.25;5.90;;;18.60;91.70;;;;;;5056920;28;20045;-77
2022/07/30 04:04:07;;;;;;;9.52;5.53;;;18.60;91.70;;;;;;5056927;28;20056;-77
2022/07/30 04:06:38;;;;;;;9.80;5.80;;;18.50;91.70;;;;;;5056484;28;20477;-77
2022/07/30 04:09:06;;;;;;;12.73;6.18;;;18.60;92.00;;;;;;5057151;28;20022;-77
2022/07/30 04:11:31;;;;;;;12.13;6.30;;;18.50;91.80;;;;;;5056703;28;20032;-77
2022/07/30 04:13:57;;;;;;;11.23;6.55;;;18.60;91.90;;;;;;5072265;28;20021;-77
2022/07/30 04:16:29;;;;;;;10.55;5.50;;;18.60;91.90;;;;;;5071927;28;20115;-77
2022/07/30 04:18:58;;;;;;;12.10;6.10;;;18.60;92.00;;;;;;5038906;28;20036;-76
2022/07/30 04:21:25;;;;;;;12.02;6.25;;;18.60;92.00;;;;;;5038558;28;20036;-77
2022/07/30 04:23:53;;;;;;;10.82;6.10;;;18.60;92.00;;;;;;5056977;28;20029;-77
2022/07/30 04:26:20;;;;;;;9.85;5.68;;;18.60;92.10;;;;;;5072095;28;20025;-77
2022/07/30 04:28:45;;;;;;;16.35;5.65;;;18.60;92.10;;;;;;5072017;28;20033;-77
2022/07/30 04:31:11;;;;;;;10.68;5.50;;;18.60;92.10;;;;;;5056134;28;20388;-77
2022/07/30 04:33:37;;;;;;;9.00;5.80;;;18.60;92.10;;;;;;5054723;28;20453;-77
2022/07/30 04:36:07;;;;;;;11.20;5.97;;;18.60;92.10;;;;;;5071743;28;20044;-76
2022/07/30 04:38:33;;;;;;;12.23;5.75;;;18.60;92.10;;;;;;5053750;28;20030;-76
2022/07/30 04:40:58;;;;;;;9.20;5.00;;;18.60;92.10;;;;;;5056263;28;20045;-76
2022/07/30 04:43:24;;;;;;;11.38;4.80;;;18.60;92.10;;;;;;5056010;28;20087;-76
2022/07/30 04:45:49;;;;;;;9.15;4.70;;;18.60;92.10;;;;;;5056152;28;20048;-76
2022/07/30 04:48:15;;;;;;;13.98;5.65;;;18.60;92.20;;;;;;5056131;28;20086;-76
2022/07/30 04:50:44;;;;;;;10.80;5.10;;;18.60;92.20;;;;;;5071805;28;20032;-77
2022/07/30 04:53:10;;;;;;;10.05;4.85;;;18.60;92.20;;;;;;5037990;28;20013;-78
2022/07/30 04:55:41;;;;;;;7.55;4.15;;;18.60;92.20;;;;;;5054993;28;20029;-79
2022/07/30 04:58:08;;;;;;;7.40;4.72;;;18.50;92.20;;;;;;5037901;28;20086;-84
2022/07/30 05:00:35;;;;;;;13.48;5.85;;;18.60;92.30;;;;;;5057924;28;20029;-83
2022/07/30 05:03:03;;;;;;;7.70;4.45;;;18.50;92.20;;;;;;5091205;28;20572;-84
2022/07/30 05:05:31;;;;;;;9.20;5.57;;;18.50;92.20;;;;;;5075178;28;20146;-85
2022/07/30 05:07:58;;;;;;;9.10;4.60;;;18.50;92.20;;;;;;5073998;28;20024;-84
2022/07/30 05:10:24;;;;;;;9.02;4.65;;;18.40;92.20;;;;;;5091295;28;20439;-84
2022/07/30 05:12:50;;;;;;;11.23;4.07;;;18.40;92.20;;;;;;5074116;28;20021;-84
2022/07/30 05:15:16;;;;;;;8.15;4.38;;;18.40;92.30;;;;;;5057482;28;20033;-83
2022/07/30 05:17:42;;;;;;;9.23;3.80;;;18.40;92.30;;;;;;5090957;28;20490;-84
2022/07/30 05:20:08;;;;;;;10.00;4.38;;;18.30;92.30;;;;;;5073995;28;20028;-85
2022/07/30 05:22:34;;;;;;;10.63;4.00;;;18.30;92.30;;;;;;5057293;28;20439;-85
2022/07/30 05:24:59;;;;;;;9.60;4.95;;;18.30;92.40;;;;;;5074345;28;20033;-84
2022/07/30 05:27:25;;;;;;;9.90;4.10;;;18.30;92.40;;;;;;5074034;28;20024;-85
2022/07/30 05:29:50;;;;;;;7.35;4.30;;;18.20;92.30;;;;;;5073975;28;20469;-85
2022/07/30 05:32:16;;;;;;;8.38;4.00;;;18.30;92.40;;;;;;5090798;28;20028;-85
2022/07/30 05:34:42;;;;;;;7.93;4.03;;;18.20;92.30;;;;;;5090827;28;20028;-84
2022/07/30 05:37:08;;;;;;;10.23;4.30;;;18.30;92.30;;;;;;5075045;28;20025;-84
2022/07/30 05:39:33;;;;;;;8.13;3.88;;;18.20;92.30;;;;;;5074812;28;20031;-85
2022/07/30 05:41:59;;;;;;;7.45;4.00;;;18.20;92.30;;;;;;5074850;28;20085;-84
2022/07/30 05:44:25;;;;;;;7.95;4.13;;;18.20;92.30;;;;;;5075025;28;20036;-84
2022/07/30 05:46:51;;;;;;;7.82;4.43;;;18.20;92.30;;;;;;5056767;28;20032;-84
2022/07/30 05:49:16;;;;;;;8.63;4.43;;;18.30;92.30;;;;;;5074693;28;20016;-79
2022/07/30 05:51:42;;;;;;;9.10;3.78;;;18.30;92.30;;;;;;5073671;28;20115;-78
2022/07/30 05:54:08;;;;;;;7.57;4.13;;;18.30;92.30;;;;;;5056750;28;20464;-79
2022/07/30 05:56:34;;;;;;;8.85;4.85;;;18.20;92.30;;;;;;5090377;28;20124;-78
2022/07/30 05:59:00;;;;;;;8.57;4.30;;;18.20;92.30;;;;;;5090742;28;20035;-78
2022/07/30 06:01:26;;;;;;;7.15;3.97;;;18.20;92.40;;;;;;5056290;28;20052;-78
2022/07/30 06:03:51;;;;;;;8.15;4.38;;;18.20;92.40;;;;;;5090067;28;20108;-78
2022/07/30 06:06:17;;;;;;;11.82;4.65;;;18.30;92.40;;;;;;5089765;28;20395;-78
2022/07/30 06:08:43;;;;;;;9.38;4.43;;;18.40;92.60;;;;;;5073000;28;20074;-78
2022/07/30 06:11:08;;;;;;;6.40;3.80;;;18.40;92.30;;;;;;5089852;28;20028;-77
2022/07/30 06:13:35;;;;;;;9.70;3.95;;;18.40;92.30;;;;;;5074252;28;20020;-78
2022/07/30 06:16:00;;;;;;;8.57;4.30;;;18.50;92.30;;;;;;5072631;28;20515;-77
2022/07/30 06:18:26;;;;;;;6.60;3.83;;;18.50;92.30;;;;;;5072896;28;20041;-79
2022/07/30 06:20:53;;;;;;;8.48;4.03;;;18.50;92.20;;;;;;5072915;28;20469;-79
2022/07/30 06:23:20;;;;;;;8.63;3.75;;;18.50;92.20;;;;;;5056072;28;20059;-84
2022/07/30 06:25:47;;;;;;;7.13;3.70;;;18.50;92.10;;;;;;5056054;28;20040;-85
2022/07/30 06:28:13;;;;;;;9.50;3.75;;;18.60;92.10;;;;;;5073933;28;20017;-85
2022/07/30 06:30:39;;;;;;;8.52;3.70;;;18.60;92.00;;;;;;5056230;28;20024;-85
2022/07/30 06:33:08;;;;;;;8.10;4.05;;;18.50;91.90;;;;;;5069767;28;20501;-84
2022/07/30 06:35:34;;;;;;;6.60;3.50;;;18.50;92.00;;;;;;5055763;28;20055;-82
2022/07/30 06:38:00;;;;;;;9.15;3.78;;;18.60;92.00;;;;;;5072314;28;20056;-84
2022/07/30 06:40:25;;;;;;;7.55;3.30;;;18.60;92.00;;;;;;5055808;28;20056;-83
2022/07/30 06:42:51;;;;;;;9.25;2.90;;;18.70;92.00;;;;;;5056012;28;20103;-84
2022/07/30 06:45:17;;;;;;;8.60;3.28;;;18.70;91.90;;;;;;5072367;28;20036;-83
2022/07/30 06:47:42;;;;;;;9.55;3.42;;;18.70;91.80;;;;;;5072242;28;20024;-83
2022/07/30 06:50:08;;;;;;;6.35;2.75;;;18.70;91.80;;;;;;5072493;28;20031;-84
2022/07/30 06:52:34;;;;;;;10.60;2.97;;;18.80;91.70;;;;;;5073681;28;20430;-82
2022/07/30 06:54:59;;;;;;;9.25;3.08;;;18.80;91.60;;;;;;5073634;28;20024;-83
2022/07/30 06:57:25;;;;;;;5.88;2.35;;;18.90;91.50;;;;;;5073585;28;20028;-83
2022/07/30 06:59:51;;;;;;;6.35;2.42;;;18.90;91.40;;;;;;5055479;28;20056;-84
2022/07/30 07:02:18;;;;;;;5.60;2.33;;;19.00;91.30;;;;;;5068779;28;20037;-84
2022/07/30 07:04:43;;;;;;;5.75;2.20;;;19.00;91.30;;;;;;5069024;28;20503;-80
2022/07/30 07:07:09;;;;;;;6.80;2.92;;;19.10;91.10;;;;;;5053405;28;20021;-82
2022/07/30 07:09:34;;;;;;;7.03;1.95;;;19.10;91.00;;;;;;5085624;28;20367;-81
2022/07/30 07:12:00;;;;;;;10.13;1.85;;;19.20;90.80;;;;;;5053700;28;20354;-80
2022/07/30 07:14:26;;;;;;;7.47;2.30;;;19.20;90.70;;;;;;5086274;28;20036;-82
2022/07/30 07:16:52;;;;;;;6.28;2.17;;;19.30;90.50;;;;;;5052135;28;20036;-82
2022/07/30 07:19:17;;;;;;;3.75;1.65;;;19.40;90.70;;;;;;5053929;28;20116;-81
2022/07/30 07:21:43;;;;;;;7.55;1.90;;;19.40;90.20;;;;;;5053594;28;20025;-84
2022/07/30 07:24:09;;;;;;;6.00;1.67;;;19.50;90.00;;;;;;5068708;28;20025;-82
2022/07/30 07:26:34;;;;;;;6.82;2.25;;;19.50;89.80;;;;;;5085538;28;20033;-82
2022/07/30 07:29:00;;;;;;;5.05;1.63;;;19.60;89.60;;;;;;5085706;28;20025;-81
2022/07/30 07:31:26;;;;;;;6.50;2.20;;;19.70;89.10;;;;;;5051888;28;20044;-82
2022/07/30 07:33:53;;;;;;;6.30;2.13;;;19.70;88.70;;;;;;5051816;28;20017;-82
2022/07/30 07:36:20;;;;;;;5.20;1.92;;;19.80;88.30;;;;;;5068216;28;20033;-82
2022/07/30 07:38:46;;;;;;;5.28;2.40;;;19.90;87.90;;;;;;5053116;28;20033;-82
2022/07/30 07:41:11;;;;;;;10.88;2.35;;;19.90;87.40;;;;;;5052884;28;20380;-81
2022/07/30 07:43:39;;;;;;;4.68;2.03;;;19.90;86.80;;;;;;5053128;28;20035;-82
2022/07/30 07:46:05;;;;;;;6.63;2.10;;;20.00;86.40;;;;;;5084694;28;20032;-82
2022/07/30 07:48:31;;;;;;;5.97;2.05;;;20.10;86.00;;;;;;5051722;28;20082;-84
2022/07/30 07:50:56;;;;;;;6.43;2.08;;;20.10;85.60;;;;;;5068656;28;20029;-82
2022/07/30 07:53:22;;;;;;;3.97;1.70;;;20.10;85.20;;;;;;5068248;28;20055;-82
2022/07/30 07:55:47;;;;;;;4.60;1.60;;;20.20;85.20;;;;;;5085310;28;20048;-81
2022/07/30 07:58:14;;;;;;;8.93;1.73;;;20.20;85.00;;;;;;5068900;28;20032;-82
2022/07/30 08:00:40;;;;;;;6.15;1.95;;;20.30;84.40;;;;;;5085361;28;20025;-83
2022/07/30 08:03:06;;;;;;;6.85;2.15;;;20.30;83.80;;;;;;5084933;28;20081;-82
2022/07/30 08:05:31;;;;;;;3.35;1.65;;;20.30;83.30;;;;;;5085037;28;20072;-83
2022/07/30 08:07:57;;;;;;;7.15;2.20;;;20.40;83.00;;;;;;5085459;28;20599;-82
2022/07/30 08:10:23;;;;;;;5.78;1.90;;;20.40;83.20;;;;;;5085346;28;20033;-77
2022/07/30 08:12:48;;;;;;;7.82;1.67;;;20.40;81.90;;;;;;5056067;28;20021;-77
2022/07/30 08:15:14;;;;;;;6.65;2.05;;;20.50;81.40;;;;;;5056660;28;20071;-78
2022/07/30 08:17:44;;;;;;;4.57;1.58;;;20.50;81.00;;;;;;5056472;28;20033;-77
2022/07/30 08:20:11;;;;;;;5.03;1.85;;;20.50;80.60;;;;;;5056576;28;20029;-77
2022/07/30 08:22:37;;;;;;;4.88;1.17;;;20.60;80.30;;;;;;5056352;28;20025;-77
2022/07/30 08:25:04;;;;;;;3.90;1.38;;;20.50;79.80;;;;;;5054976;28;20504;-77
2022/07/30 08:27:30;;;;;;;3.65;1.40;;;20.60;79.40;;;;;;5054988;28;20064;-77
2022/07/30 08:29:55;;;;;;;4.15;1.42;;;20.60;79.10;;;;;;5088672;28;20059;-78
2022/07/30 08:32:21;;;;;;;5.68;1.63;;;20.70;78.80;;;;;;5071504;28;20027;-75
2022/07/30 08:34:46;;;;;;;3.53;1.40;;;20.70;78.30;;;;;;5088169;28;20029;-76
2022/07/30 08:37:13;;;;;;;4.93;1.80;;;20.80;78.00;;;;;;5088138;28;20120;-75
2022/07/30 08:39:38;;;;;;;4.00;1.77;;;20.80;77.90;;;;;;5088185;28;20508;-76
2022/07/30 08:42:04;;;;;;;5.70;1.55;;;20.80;77.70;;;;;;5088066;28;20028;-76
2022/07/30 08:44:31;;;;;;;5.65;1.55;;;20.80;77.40;;;;;;5088212;28;20087;-77
2022/07/30 08:46:58;;;;;;;4.38;1.55;;;20.80;77.10;;;;;;5055971;28;20057;-76
2022/07/30 08:49:25;;;;;;;5.13;1.55;;;20.90;77.00;;;;;;5054914;28;20028;-76
2022/07/30 08:51:51;;;;;;;5.20;1.40;;;20.90;76.80;;;;;;5054469;28;20094;-76
2022/07/30 08:54:20;;;;;;;4.05;1.25;;;20.90;76.50;;;;;;5071043;28;20023;-77
2022/07/30 08:56:48;;;;;;;3.55;1.13;;;21.00;76.20;;;;;;5088274;28;20025;-76
2022/07/30 08:59:15;;;;;;;8.30;1.33;;;21.00;75.90;;;;;;5055409;28;20029;-76
2022/07/30 09:01:41;;;;;;;4.57;1.10;;;21.00;75.40;;;;;;5090521;28;20028;-76
2022/07/30 09:04:07;;;;;;;7.13;1.42;;;21.00;74.90;;;;;;5074700;28;20407;-77
2022/07/30 09:06:32;;;;;;;5.57;1.20;;;21.00;74.80;;;;;;5058014;28;20044;-78
2022/07/30 09:08:58;;;;;;;5.15;1.13;;;21.10;74.80;;;;;;5074097;28;20032;-77
2022/07/30 09:11:24;;;;;;;5.50;1.40;;;21.20;74.80;;;;;;5057562;28;20024;-76
2022/07/30 09:13:49;;;;;;;6.45;1.10;;;21.20;74.60;;;;;;5057706;28;20409;-78
2022/07/30 09:16:21;;;;;;;5.55;1.00;;;21.20;74.10;;;;;;5074007;28;20413;-77
2022/07/30 09:18:48;;;;;;;5.05;1.20;;;21.30;73.50;;;;;;5075266;28;20024;-76
2022/07/30 09:21:22;;;;;;;2.30;0.70;;;21.20;72.80;;;;;;5057182;28;20496;-77
2022/07/30 09:24:08;;;;;;;3.03;1.10;;;21.30;72.30;;;;;;5074738;28;20519;-78
2022/07/30 09:26:51;;;;;;;3.47;0.98;;;21.40;72.10;;;;;;5075025;28;20425;-77
2022/07/30 09:29:22;;;;;;;3.15;1.00;;;21.30;71.70;;;;;;5074176;28;20372;-77
2022/07/30 09:32:02;;;;;;;3.00;1.15;;;21.40;71.70;;;;;;5074933;28;20055;-78
2022/07/30 09:34:30;;;;;;;4.00;1.00;;;21.50;71.80;;;;;;5073687;28;20065;-78
2022/07/30 09:36:57;;;;;;;3.90;0.93;;;21.50;71.70;;;;;;5073887;28;20376;-78
2022/07/30 09:39:35;;;;;;;3.65;1.15;;;21.60;71.50;;;;;;5074810;28;20086;-79
2022/07/30 09:42:03;;;;;;;3.42;1.15;;;21.60;71.90;;;;;;5074994;28;20138;-76
2022/07/30 09:44:30;;;;;;;2.05;0.70;;;21.60;71.10;;;;;;5040892;28;20463;-79
2022/07/30 09:46:57;;;;;;;2.10;0.82;;;21.70;70.70;;;;;;5073267;28;20063;-78
2022/07/30 09:49:27;;;;;;;6.57;1.08;;;21.70;70.60;;;;;;5074701;28;20373;-79
2022/07/30 09:51:54;;;;;;;4.88;1.08;;;21.70;70.40;;;;;;5074679;28;20045;-79
2022/07/30 09:54:20;;;;;;;3.88;1.20;;;21.70;70.20;;;;;;5056629;28;20029;-78
2022/07/30 09:56:45;;;;;;;5.70;1.08;;;21.80;70.10;;;;;;5074725;28;20036;-77
2022/07/30 09:59:28;;;;;;;3.22;1.23;;;21.80;69.80;;;;;;5075103;28;20358;-77
2022/07/30 10:01:55;;;;;;;4.80;1.00;;;21.90;69.40;;;;;;5072985;28;20047;-78
2022/07/30 10:04:38;;;;;;;5.03;1.10;;;22.00;69.20;;;;;;5056677;28;20029;-76
2022/07/30 10:07:15;;;;;;;2.20;0.80;;;22.00;69.00;;;;;;5056520;28;20440;-77
2022/07/30 10:09:44;;;;;;;3.72;1.40;;;22.10;68.90;;;;;;5058349;28;20052;-78
2022/07/30 10:12:12;;;;;;;5.82;1.10;;;22.10;68.60;;;;;;5057042;28;20020;-78
2022/07/30 10:14:42;;;;;;;5.53;0.95;;;22.10;68.30;;;;;;5074339;28;20021;-77
2022/07/30 10:17:08;;;;;;;5.00;1.05;;;22.20;68.00;;;;;;5056079;28;20035;-78
2022/07/30 10:19:35;;;;;;;4.57;1.10;;;22.20;67.50;;;;;;5074739;28;20025;-79
2022/07/30 10:22:02;;;;;;;3.30;0.70;;;22.30;67.10;;;;;;5056738;28;20017;-77
2022/07/30 10:24:30;;;;;;;4.65;0.88;;;22.30;66.40;;;;;;5074347;28;20052;-77
2022/07/30 10:26:56;;;;;;;3.40;0.70;;;22.40;65.80;;;;;;5056096;28;20025;-79
2022/07/30 10:29:22;;;;;;;4.68;0.90;;;22.50;65.30;;;;;;5073817;28;20020;-79
2022/07/30 10:31:49;;;;;;;2.80;0.85;;;22.50;64.90;;;;;;5057029;28;20031;-79
2022/07/30 10:34:16;;;;;;;2.08;0.77;;;22.60;64.70;;;;;;5072825;28;20059;-79
2022/07/30 10:36:46;;;;;;;4.40;1.02;;;22.70;64.60;;;;;;5071676;28;20025;-80
2022/07/30 10:39:16;;;;;;;2.65;0.88;;;22.80;64.30;;;;;;5055784;28;20059;-81
2022/07/30 10:41:55;;;;;;;3.38;0.93;;;22.90;64.00;;;;;;5072379;28;20024;-81
2022/07/30 10:44:39;;;;;;;2.78;0.52;;;23.10;63.60;;;;;;5073571;28;20033;-79
2022/07/30 10:47:06;;;;;;;3.72;0.80;;;23.30;62.90;;;;;;5073544;28;20029;-80
2022/07/30 10:49:32;;;;;;;1.60;0.70;;;23.50;62.80;;;;;;5055610;28;20017;-79
2022/07/30 10:51:58;;;;;;;3.38;0.70;;;23.70;62.30;;;;;;5089423;28;20032;-76
2022/07/30 10:54:32;;;;;;;1.70;0.60;;;23.90;61.50;;;;;;5072190;28;20055;-80
2022/07/30 10:57:10;;;;;;;3.47;0.70;;;24.10;61.80;;;;;;5073357;28;20028;-80
2022/07/30 10:59:51;;;;;;;3.28;0.70;;;24.30;60.80;;;;;;5072202;28;20060;-79
2022/07/30 11:02:18;;;;;;;3.38;0.70;;;24.50;61.20;;;;;;5072012;28;20056;-80
2022/07/30 11:04:44;;;;;;;3.72;0.70;;;24.60;60.50;;;;;;5055445;28;20465;-79
2022/07/30 11:07:22;;;;;;;4.18;0.60;;;24.80;60.20;;;;;;5055372;28;20537;-80
2022/07/30 11:09:59;;;;;;;2.05;0.82;;;25.00;59.80;;;;;;5072064;28;20032;-81
2022/07/30 11:12:44;;;;;;;2.28;0.68;;;25.20;59.50;;;;;;5039582;28;20024;-81
2022/07/30 11:15:16;;;;;;;3.65;0.90;;;25.40;58.70;;;;;;5073182;28;20017;-78
2022/07/30 11:18:04;;;;;;;5.10;0.80;;;25.60;58.80;;;;;;5055308;28;20051;-80
2022/07/30 11:20:32;;;;;;;1.88;0.68;;;25.90;58.20;;;;;;5071966;28;20103;-79
2022/07/30 11:23:09;;;;;;;2.30;0.70;;;26.10;58.30;;;;;;5071933;28;20055;-81
2022/07/30 11:25:35;;;;;;;2.17;0.73;;;26.30;57.90;;;;;;5073064;28;20028;-80
2022/07/30 11:28:00;;;;;;;2.35;0.65;;;26.50;57.60;;;;;;5073152;28;20488;-81
2022/07/30 11:30:30;;;;;;;2.72;0.80;;;26.60;57.20;;;;;;5071900;28;20020;-79
2022/07/30 11:33:16;;;;;;;4.13;1.00;;;26.80;57.00;;;;;;5071851;28;20453;-81
2022/07/30 11:35:42;;;;;;;4.53;0.85;;;27.00;56.50;;;;;;5071242;28;20389;-82
2022/07/30 11:38:17;;;;;;;2.45;0.90;;;27.10;56.70;;;;;;5071734;28;20027;-82
2022/07/30 11:40:45;;;;;;;2.00;0.80;;;27.30;56.30;;;;;;5055653;28;20038;-81
2022/07/30 11:43:18;;;;;;;3.72;0.70;;;27.50;56.30;;;;;;5072932;28;20070;-81
2022/07/30 11:46:05;;;;;;;2.70;0.80;;;27.60;56.10;;;;;;5071682;28;20078;-81
2022/07/30 11:48:31;;;;;;;3.72;0.77;;;27.80;55.80;;;;;;5076808;28;20017;-80
2022/07/30 11:50:57;;;;;;;3.35;0.80;;;27.90;55.80;;;;;;5059280;28;20370;-77
2022/07/30 11:53:23;;;;;;;3.80;0.90;;;28.00;55.30;;;;;;5059018;28;20021;-81
2022/07/30 11:55:57;;;;;;;3.08;0.93;;;28.00;54.70;;;;;;5077125;28;20029;-80
2022/07/30 11:58:26;;;;;;;2.70;0.85;;;28.00;54.40;;;;;;5076797;28;20111;-80
2022/07/30 12:00:56;;;;;;;4.38;1.10;;;28.10;54.40;;;;;;5076899;28;20024;-80
2022/07/30 12:03:23;;;;;;;3.00;0.80;;;28.20;54.20;;;;;;5075093;28;20539;-81
2022/07/30 12:05:50;;;;;;;1.98;0.80;;;28.30;54.00;;;;;;5075327;28;20029;-82
2022/07/30 12:08:16;;;;;;;2.75;0.82;;;28.50;53.50;;;;;;5058970;28;20240;-81
2022/07/30 12:10:43;;;;;;;2.22;0.65;;;28.60;53.10;;;;;;5076644;28;20027;-83
2022/07/30 12:13:11;;;;;;;4.20;0.70;;;28.90;52.80;;;;;;5058632;28;20035;-81
2022/07/30 12:15:39;;;;;;;2.67;0.60;;;29.00;52.40;;;;;;5042126;28;20040;-81
2022/07/30 12:18:06;;;;;;;2.20;0.50;;;29.20;52.00;;;;;;5076316;28;20101;-80
2022/07/30 12:20:33;;;;;;;1.63;0.50;;;29.50;51.70;;;;;;5075059;28;20020;-81
2022/07/30 12:22:58;;;;;;;1.55;0.50;;;29.70;51.40;;;;;;5074917;28;20384;-81
2022/07/30 12:25:24;;;;;;;2.00;0.52;;;29.90;51.30;;;;;;5075052;28;20025;-81
2022/07/30 12:27:51;;;;;;;1.70;0.50;;;30.10;50.80;;;;;;5058439;28;20037;-81
2022/07/30 12:30:17;;;;;;;1.70;0.40;;;30.30;50.40;;;;;;5076568;28;20036;-80
2022/07/30 12:32:44;;;;;;;2.72;0.60;;;30.50;50.20;;;;;;5076321;28;20063;-81
2022/07/30 12:35:10;;;;;;;1.63;0.50;;;30.80;49.70;;;;;;5058028;28;20078;-81
2022/07/30 12:37:36;;;;;;;2.10;0.70;;;31.00;49.00;;;;;;5041698;28;20093;-82
2022/07/30 12:40:14;;;;;;;2.75;0.65;;;31.30;48.60;;;;;;5058482;28;20020;-82
2022/07/30 12:43:10;;;;;;;3.13;0.77;;;31.40;47.80;;;;;;5074856;28;20078;-80
2022/07/30 12:45:35;;;;;;;3.53;0.43;;;31.70;47.10;;;;;;5059519;28;20036;-81
2022/07/30 12:48:01;;;;;;;1.20;0.45;;;31.90;47.40;;;;;;5057754;28;20157;-81
2022/07/30 12:50:27;;;;;;;1.95;0.45;;;31.90;46.60;;;;;;5057925;28;20025;-78